Terminal Aerodrome Forecast
Issued by NWS Paducah, KY

Home | Current Version | Previous Version | Text Only | Print | Product List | Glossary On
Versions: 1 2 3 4 5 6 7 8 9 10 11 12 13 14 15 16 17 18 19 20 21 22 23
000
FTUS43 KPAH 292321
TAFPAH
TAF
KPAH 292321Z 3000/3024 09006KT P6SM SCT050 BKN100
      TEMPO 3000/3004 BKN050
     FM300400 13008KT P6SM SCT025 BKN050
     FM300800 16009KT 3SM TSRA BR BKN025CB
     FM301400 19013G21KT P6SM SCT025 BKN250
     FM301900 20015G25KT 3SM TSRA OVC025CB
     FM302300 21012G20KT 6SM -SHRA BKN025=

USA.gov is the U.S. government's official web portal to all federal, state and local government web resources and services.